Akron, IA (51001)

4:09 PM CDT on July 07, 2015 (GMT -0500)
Rural Elk Point | | Change Station
CLOSE
Current Station
Personal Weather Station
Location: Elk Point, SD
Elevation: 1119 ft
Nearby Weather Stations

Elev 1119 ft 42.63 °N, 96.64 °W | Updated 4 minutes ago

Partly Cloudy
Partly Cloudy
73.2 °F
Feels Like 77 °F
N
1.6
Wind Variable Wind from SE
Gusts 8.3 mph

Today
High -- | Low -- °F
--% Chance of Precip.
Yesterday
High -- | Low -- °F
Precip. -- in
5:54 AM 9:06 PM
Waning Gibbous, 61% visible
Pressure 30.14 in
Visibility 10.0 miles
Clouds Clear
Heat Index 77 °F
Dew Point 56 °F
Humidity 55%
Rainfall 0.00 in
Snow Depth Not available.
UV 8 out of 12
Pollen 3.60 out of 12
Air Quality Not available.
Flu Activity Not available.
METAR KLRJ 072055Z AUTO 01007KT 10SM CLR 21/10 A3014 RMK AO2

More Conditions Fewer Conditions

Pressure 30.14 in
Visibility 10.0 miles
Clouds Clear
Heat Index 77 °F
Dew Point 56 °F
Humidity 55%
Rainfall 0.00 in
Snow Depth Not available.
UV 8 out of 12
Pollen 3.60 out of 12
Air Quality Not available.
Flu Activity Not available.
METAR KLRJ 072055Z AUTO 01007KT 10SM CLR 21/10 A3014 RMK AO2

More Conditions Fewer Conditions

10-Day Weather Forecast

×

Almanac

Astronomy

Jul. 07, 2015 Rise Set
Actual Time
Civil Twilight
Nautical Twilight
Astronomical Twilight
Moon
Length of Visible Light
Length of Day
Tomorrow will be .
, % of the Moon is Illuminated

Today's Extremes

State Highs State Lows

Community

WunderPhotos

Upload Photos

1,835,902 photos uploaded!

WunderBlogs® & News

Nearby

Air Quality

  Air Quality AQ Index Pollutant
Not available.

Snow Depth

Station Depth Elevation

Earthquake Activity

City Distance Mag. Time & Date
Minimum magnitude displayed is 2.5.

Coastal Water Temperatures

Place Temperature

Stations

Nearby Weather Stations

Station Location Temp. Windchill Dew Point Humidity Wind Precip. Elev Updated Type